createdAt,value
2022-10-17T00:00:15.753Z,101413.91
2022-10-17T00:02:44.445Z,101409.91
2022-10-17T00:05:15.686Z,101409.00
2022-10-17T00:07:46.905Z,101407.19
2022-10-17T00:10:18.754Z,101407.78
2022-10-17T00:12:52.162Z,101415.91
2022-10-17T00:15:21.965Z,101416.19
2022-10-17T00:17:51.502Z,101406.63
2022-10-17T00:20:20.612Z,101403.94
2022-10-17T00:22:49.684Z,101404.28
2022-10-17T00:25:18.911Z,101398.09
2022-10-17T00:27:47.693Z,101394.06
2022-10-17T00:30:20.490Z,101405.88
2022-10-17T00:32:49.382Z,101399.78
2022-10-17T00:35:18.271Z,101394.22
2022-10-17T00:37:49.416Z,101393.97
2022-10-17T00:40:19.380Z,101393.06
2022-10-17T00:42:51.258Z,101400.88
2022-10-17T00:45:25.140Z,101397.13
2022-10-17T00:47:59.072Z,101401.84
2022-10-17T00:50:29.434Z,101392.72
2022-10-17T00:53:04.017Z,101385.06
2022-10-17T00:55:40.186Z,101389.28
2022-10-17T00:58:09.474Z,101391.38
2022-10-17T01:00:44.085Z,101387.34
2022-10-17T01:03:13.212Z,101384.50
2022-10-17T01:05:43.471Z,101381.66
2022-10-17T01:08:12.496Z,101386.66
2022-10-17T01:10:55.953Z,101380.72
2022-10-17T01:13:31.479Z,101378.91
2022-10-17T01:16:12.875Z,101372.47
2022-10-17T01:18:57.447Z,101375.34
2022-10-17T01:21:32.681Z,101366.97
2022-10-17T01:24:35.252Z,101365.19
2022-10-17T01:27:43.770Z,101362.16
2022-10-17T01:30:55.518Z,101363.56
2022-10-17T01:33:39.137Z,101357.81
2022-10-17T01:36:13.093Z,101361.84
2022-10-17T01:38:49.355Z,101267.66
2022-10-17T01:41:28.842Z,101332.41
2022-10-17T01:44:05.078Z,101340.00
2022-10-17T01:46:38.222Z,101334.94
2022-10-17T01:49:11.290Z,101317.72
2022-10-17T01:51:42.606Z,101323.41
2022-10-17T01:54:15.265Z,101322.47
2022-10-17T01:56:47.140Z,101318.91
2022-10-17T01:59:20.641Z,101320.94
2022-10-17T02:01:53.515Z,101319.19
2022-10-17T02:04:25.322Z,101318.06
2022-10-17T02:06:54.113Z,101328.97
2022-10-17T02:09:25.400Z,101319.56
2022-10-17T02:12:22.419Z,101320.63
2022-10-17T02:15:05.320Z,101315.03
2022-10-17T02:17:46.749Z,101301.59
2022-10-17T02:20:25.018Z,101301.34
2022-10-17T02:23:04.170Z,101295.50
2022-10-17T02:25:45.112Z,101294.06
2022-10-17T02:28:22.362Z,101281.22
2022-10-17T02:30:57.290Z,101295.19
2022-10-17T02:33:30.761Z,101294.16
2022-10-17T02:36:04.913Z,101295.19
2022-10-17T02:38:35.586Z,101279.28
2022-10-17T02:41:07.357Z,101287.56
2022-10-17T02:43:38.078Z,101278.78
2022-10-17T02:46:10.226Z,101285.78
2022-10-17T02:48:43.132Z,101289.97
2022-10-17T02:51:25.300Z,101296.25
2022-10-17T02:54:07.517Z,101292.66
2022-10-17T02:56:45.327Z,101286.41
2022-10-17T02:59:18.646Z,101293.50
2022-10-17T03:01:48.142Z,101290.28
2022-10-17T03:04:22.178Z,101295.72
2022-10-17T03:06:55.262Z,101309.41
2022-10-17T03:09:25.238Z,101308.56
2022-10-17T03:11:54.413Z,101309.66
2022-10-17T03:14:25.647Z,101315.75
2022-10-17T03:16:54.598Z,101302.75
2022-10-17T03:19:24.094Z,101315.50
2022-10-17T03:21:56.562Z,101316.28
2022-10-17T03:24:27.742Z,101316.03
2022-10-17T03:26:56.719Z,101314.16
2022-10-17T03:29:25.821Z,101312.69
2022-10-17T03:31:56.026Z,101310.09
2022-10-17T03:34:27.438Z,101318.72
2022-10-17T03:36:59.913Z,101323.97
2022-10-17T03:39:30.669Z,101322.84
2022-10-17T03:42:00.164Z,101317.47
2022-10-17T03:44:32.172Z,101313.47
2022-10-17T03:47:01.785Z,101317.69
2022-10-17T03:49:33.174Z,101300.22
2022-10-17T03:52:04.045Z,101289.22
2022-10-17T03:54:33.255Z,101311.69
2022-10-17T03:57:04.369Z,101313.63
2022-10-17T03:59:35.706Z,101307.47
2022-10-17T04:02:09.375Z,101305.78
2022-10-17T04:04:38.078Z,101319.41
2022-10-17T04:07:21.078Z,101331.94
2022-10-17T04:09:50.848Z,101331.06
2022-10-17T04:12:21.917Z,101327.25
2022-10-17T04:14:53.378Z,101326.50
2022-10-17T04:17:22.904Z,101332.75
2022-10-17T04:19:51.887Z,101301.19
2022-10-17T04:22:26.937Z,101333.66
2022-10-17T04:24:56.058Z,101327.34
2022-10-17T04:27:33.071Z,101331.50
2022-10-17T04:30:04.905Z,101334.13
2022-10-17T04:32:38.003Z,101336.72
2022-10-17T04:35:26.951Z,101337.31
2022-10-17T04:38:04.708Z,101332.13
2022-10-17T04:40:33.704Z,101341.22
2022-10-17T04:43:04.843Z,101352.78
2022-10-17T04:45:37.803Z,101358.47
2022-10-17T04:48:08.254Z,101352.84
2022-10-17T04:50:37.421Z,101366.50
2022-10-17T04:53:32.373Z,101363.56
2022-10-17T04:56:01.430Z,101366.69
2022-10-17T04:58:31.097Z,101362.19
2022-10-17T05:01:06.413Z,101345.00
2022-10-17T05:03:38.806Z,101349.66
2022-10-17T05:06:09.297Z,101362.16
2022-10-17T05:08:41.321Z,101365.22
2022-10-17T05:11:18.107Z,101364.53
2022-10-17T05:13:51.481Z,101353.63
2022-10-17T05:16:20.702Z,101362.34
2022-10-17T05:18:53.216Z,101353.56
2022-10-17T05:21:23.619Z,101380.25
2022-10-17T05:23:53.985Z,101381.19
2022-10-17T05:26:23.559Z,101241.47
2022-10-17T05:28:53.242Z,101382.44
2022-10-17T05:31:27.347Z,101362.34
2022-10-17T05:34:01.971Z,101374.50
2022-10-17T05:36:34.909Z,101381.63
2022-10-17T05:39:08.754Z,101381.75
2022-10-17T05:41:39.052Z,101376.38
2022-10-17T05:44:08.007Z,101370.72
2022-10-17T05:46:42.005Z,101370.78
2022-10-17T05:49:19.543Z,101373.69
2022-10-17T05:51:54.461Z,101381.44
2022-10-17T05:54:24.990Z,101376.31
2022-10-17T05:56:54.203Z,101395.41
2022-10-17T05:59:26.567Z,101390.91
2022-10-17T06:01:59.834Z,101393.63
2022-10-17T06:04:28.861Z,101391.22
2022-10-17T06:06:57.496Z,101386.31
2022-10-17T06:09:27.552Z,101370.59
2022-10-17T06:11:59.251Z,101391.03
2022-10-17T06:14:27.945Z,101229.06
2022-10-17T06:17:02.277Z,101394.91
2022-10-17T06:19:33.736Z,101399.94
2022-10-17T06:22:02.627Z,101402.81
2022-10-17T06:24:35.370Z,101416.59
2022-10-17T06:27:10.929Z,101414.75
2022-10-17T06:29:42.310Z,101435.91
2022-10-17T06:32:14.911Z,101439.44
2022-10-17T06:34:46.658Z,101430.72
2022-10-17T06:37:16.376Z,101431.94
2022-10-17T06:39:48.363Z,101435.44
2022-10-17T06:42:21.329Z,101434.75
2022-10-17T06:45:06.361Z,101444.69
2022-10-17T06:47:44.753Z,101440.97
2022-10-17T06:50:29.418Z,101443.34
2022-10-17T06:53:14.666Z,101434.38
2022-10-17T06:56:04.699Z,101441.47
2022-10-17T06:58:49.444Z,101445.97
2022-10-17T07:01:37.528Z,101425.94
2022-10-17T07:04:07.119Z,101451.03
2022-10-17T07:06:39.737Z,101464.63
2022-10-17T07:09:14.520Z,101466.41
2022-10-17T07:11:44.908Z,101471.28
2022-10-17T07:14:18.471Z,101466.31
2022-10-17T07:16:48.433Z,101448.72
2022-10-17T07:19:20.841Z,101493.31
2022-10-17T07:21:52.325Z,101495.75
2022-10-17T07:24:23.351Z,101521.75
2022-10-17T07:27:11.035Z,101518.28
2022-10-17T07:29:39.896Z,101512.28
2022-10-17T07:32:18.215Z,101511.88
2022-10-17T07:34:47.128Z,101535.72
2022-10-17T07:37:18.746Z,101546.72
2022-10-17T07:39:54.274Z,101569.47
2022-10-17T07:42:25.081Z,101567.19
2022-10-17T07:44:58.243Z,101589.78
2022-10-17T07:47:31.419Z,101594.09
2022-10-17T07:50:06.376Z,101578.88
2022-10-17T07:52:35.545Z,101593.47
2022-10-17T07:55:13.440Z,101614.34
2022-10-17T07:57:49.186Z,101630.47
2022-10-17T08:00:18.512Z,101636.94
2022-10-17T08:02:49.760Z,101534.00
2022-10-17T08:05:18.616Z,101649.53
2022-10-17T08:07:47.378Z,101655.81
2022-10-17T08:10:19.606Z,101614.75
2022-10-17T08:12:52.329Z,101648.69
2022-10-17T08:15:26.797Z,101651.09
2022-10-17T08:17:58.166Z,101638.19
2022-10-17T08:20:27.147Z,101641.91
2022-10-17T08:22:56.543Z,101651.38
2022-10-17T08:25:27.614Z,101640.41
2022-10-17T08:28:00.859Z,101634.09
2022-10-17T08:30:32.023Z,101617.09
2022-10-17T08:33:00.707Z,101613.03
2022-10-17T08:35:32.363Z,101628.19
2022-10-17T08:38:03.183Z,101626.81
2022-10-17T08:40:35.449Z,101612.16
2022-10-17T08:43:35.385Z,101594.75
2022-10-17T08:46:07.702Z,101610.66
2022-10-17T08:48:46.721Z,101591.00
2022-10-17T08:51:22.819Z,101592.88
2022-10-17T08:53:56.584Z,101548.22
2022-10-17T08:56:48.158Z,101590.13
2022-10-17T08:59:27.053Z,101612.38
2022-10-17T09:02:04.025Z,101613.03
2022-10-17T09:04:52.022Z,101630.31
2022-10-17T09:07:33.098Z,101645.84
2022-10-17T09:10:15.607Z,101653.06
2022-10-17T09:12:52.845Z,101657.91
2022-10-17T09:15:51.756Z,101662.47
2022-10-17T09:18:27.018Z,101649.84
2022-10-17T09:21:04.748Z,101527.97
2022-10-17T09:23:42.450Z,101635.69
2022-10-17T09:26:14.644Z,101582.09
2022-10-17T09:28:44.329Z,101623.72
2022-10-17T09:31:21.404Z,101639.38
2022-10-17T09:33:54.892Z,101639.34
2022-10-17T09:36:27.015Z,101626.47
2022-10-17T09:38:57.751Z,101645.34
2022-10-17T09:41:44.857Z,101645.88
2022-10-17T09:44:21.648Z,101660.63
2022-10-17T09:47:11.379Z,101674.75
2022-10-17T09:49:44.797Z,101685.69
2022-10-17T09:52:17.690Z,101691.13
2022-10-17T09:54:48.937Z,101703.66
2022-10-17T09:57:19.648Z,101715.69
2022-10-17T09:59:56.848Z,101722.50
2022-10-17T10:02:29.162Z,101712.94
2022-10-17T10:05:05.896Z,101715.94
2022-10-17T10:07:39.194Z,101730.47
2022-10-17T10:10:28.265Z,101737.25
2022-10-17T10:13:06.607Z,101744.16
2022-10-17T10:15:48.401Z,101751.78
2022-10-17T10:18:38.670Z,101750.50
2022-10-17T10:21:11.378Z,101724.25
2022-10-17T10:23:41.735Z,101743.00
2022-10-17T10:26:26.850Z,101759.38
2022-10-17T10:29:00.054Z,101762.97
2022-10-17T10:31:33.170Z,101767.19
2022-10-17T10:34:04.742Z,101779.69
2022-10-17T10:37:05.142Z,101778.72
2022-10-17T10:39:43.176Z,101788.38
2022-10-17T10:42:26.349Z,101795.50
2022-10-17T10:44:58.959Z,101798.91
2022-10-17T10:47:32.245Z,101797.63
2022-10-17T10:50:25.624Z,101797.44
2022-10-17T10:53:13.005Z,101797.03
2022-10-17T10:55:48.961Z,101805.00
2022-10-17T10:58:29.926Z,101803.56
2022-10-17T11:01:03.398Z,101800.25
2022-10-17T11:03:37.138Z,101808.50
2022-10-17T11:06:14.944Z,101809.38
2022-10-17T11:08:49.396Z,101792.63
2022-10-17T11:11:27.614Z,101809.50
2022-10-17T11:14:01.776Z,101802.78
2022-10-17T11:16:37.103Z,101826.28
2022-10-17T11:19:14.058Z,101828.88
2022-10-17T11:21:48.521Z,101751.75
2022-10-17T11:24:24.796Z,101835.25
2022-10-17T11:27:00.451Z,101818.03
2022-10-17T11:29:32.211Z,101842.81
2022-10-17T11:32:06.751Z,101848.97
2022-10-17T11:34:41.925Z,101851.53
2022-10-17T11:37:17.505Z,101837.69
2022-10-17T11:39:51.531Z,101806.97
2022-10-17T11:42:24.763Z,101847.69
2022-10-17T11:45:01.512Z,101849.31
2022-10-17T11:47:40.346Z,101862.97
2022-10-17T11:53:15.401Z,101881.84
2022-10-17T11:55:45.424Z,101882.69
2022-10-17T11:58:26.791Z,101870.94
2022-10-17T12:01:08.029Z,101878.22
2022-10-17T12:03:49.661Z,101890.44
2022-10-17T12:06:29.735Z,101888.41
2022-10-17T12:09:11.968Z,101885.78
2022-10-17T12:11:54.049Z,101889.34
2022-10-17T12:14:43.665Z,101893.59
2022-10-17T12:17:35.458Z,101902.63
2022-10-17T12:20:27.411Z,101904.69
2022-10-17T12:22:58.829Z,101905.34
2022-10-17T12:25:31.625Z,101909.97
2022-10-17T12:28:14.335Z,101911.22
2022-10-17T12:30:52.708Z,101902.75
2022-10-17T12:33:23.955Z,101900.69
2022-10-17T12:36:46.969Z,101897.81
2022-10-17T12:39:54.262Z,101901.97
2022-10-17T12:42:50.557Z,101877.22
2022-10-17T12:45:48.841Z,101909.44
2022-10-17T12:48:55.123Z,101908.84
2022-10-17T12:51:40.519Z,101923.19
2022-10-17T12:54:14.191Z,101918.59
2022-10-17T12:56:47.810Z,101916.72
2022-10-17T12:59:23.572Z,101918.78
2022-10-17T13:01:59.787Z,101919.69
2022-10-17T13:04:31.004Z,101930.31
2022-10-17T13:07:02.926Z,101930.84
2022-10-17T13:09:34.785Z,101941.84
2022-10-17T13:12:06.877Z,101928.16
2022-10-17T13:14:42.302Z,101933.03
2022-10-17T13:17:24.003Z,101944.13
2022-10-17T13:19:53.388Z,101934.47
2022-10-17T13:22:25.134Z,101954.22
2022-10-17T13:25:06.394Z,101950.66
2022-10-17T13:27:36.549Z,101956.97
2022-10-17T13:30:24.769Z,101967.31
2022-10-17T13:32:59.141Z,101967.81
2022-10-17T13:38:27.021Z,101973.06
2022-10-17T13:41:11.036Z,101971.66
2022-10-17T13:43:45.848Z,101980.56
2022-10-17T13:46:36.741Z,101980.16
2022-10-17T13:49:23.202Z,101973.16
2022-10-17T13:51:55.979Z,101968.09
2022-10-17T13:54:35.240Z,101957.81
2022-10-17T13:57:17.115Z,101926.31
2022-10-17T13:59:50.487Z,101970.72
2022-10-17T14:02:23.556Z,101971.66
2022-10-17T14:05:19.767Z,101971.72
2022-10-17T14:10:43.537Z,101960.38
2022-10-17T14:13:23.575Z,101965.09
2022-10-17T14:15:53.940Z,101973.56
2022-10-17T14:18:33.275Z,101882.81
2022-10-17T14:24:29.366Z,101995.34
2022-10-17T14:27:01.301Z,102000.69
2022-10-17T14:29:34.417Z,101993.06
2022-10-17T14:32:08.591Z,101993.41
2022-10-17T14:34:38.628Z,101989.69
2022-10-17T14:37:13.852Z,101970.03
2022-10-17T14:39:42.670Z,101992.50
2022-10-17T14:42:42.143Z,101997.69
2022-10-17T14:45:19.105Z,101997.41
2022-10-17T14:47:54.262Z,101991.41
2022-10-17T14:50:27.031Z,101995.41
2022-10-17T14:53:06.027Z,102018.56
2022-10-17T14:55:36.656Z,102018.47
2022-10-17T14:58:17.936Z,102026.25
2022-10-17T15:00:46.748Z,102029.78
2022-10-17T15:03:46.475Z,102030.78
2022-10-17T15:06:21.215Z,102035.63
2022-10-17T15:08:51.544Z,102046.41
2022-10-17T15:11:23.041Z,102040.78
2022-10-17T15:13:51.798Z,102040.59
2022-10-17T15:16:25.486Z,102033.13
2022-10-17T15:18:55.243Z,102029.94
2022-10-17T15:21:39.194Z,102048.34
2022-10-17T15:24:12.005Z,102044.47
2022-10-17T15:26:43.173Z,102049.06
2022-10-17T15:29:16.497Z,101967.75
2022-10-17T15:31:45.341Z,102059.38
2022-10-17T15:34:14.349Z,102059.94
2022-10-17T15:36:49.930Z,102038.03
2022-10-17T15:39:23.128Z,102070.69
2022-10-17T15:41:51.796Z,102069.38
2022-10-17T15:44:23.041Z,102077.28
2022-10-17T15:46:56.666Z,102083.50
2022-10-17T15:49:25.405Z,102081.81
2022-10-17T15:51:55.411Z,102091.75
2022-10-17T15:54:25.859Z,102092.22
2022-10-17T15:56:56.488Z,102004.31
2022-10-17T15:59:35.449Z,102099.78
2022-10-17T16:02:04.088Z,102096.31
2022-10-17T16:04:35.604Z,102093.03
2022-10-17T16:07:04.556Z,102101.84
2022-10-17T16:09:35.080Z,102101.16
2022-10-17T16:12:04.537Z,102093.75
2022-10-17T16:14:35.484Z,102066.84
2022-10-17T16:17:04.383Z,102092.38
2022-10-17T16:19:33.151Z,102096.00
2022-10-17T16:22:04.699Z,102102.91
2022-10-17T16:24:37.400Z,102073.34
2022-10-17T16:27:06.501Z,102101.84
2022-10-17T16:29:35.622Z,102008.03
2022-10-17T16:32:04.362Z,102102.44
2022-10-17T16:34:33.581Z,102133.34
2022-10-17T16:37:02.250Z,102117.66
2022-10-17T16:39:31.192Z,102108.16
2022-10-17T16:42:03.958Z,102116.25
2022-10-17T16:44:34.863Z,102124.47
2022-10-17T16:47:03.989Z,102116.13
2022-10-17T16:49:35.229Z,102128.88
2022-10-17T16:52:06.696Z,102122.22
2022-10-17T16:54:35.584Z,102134.03
2022-10-17T16:57:06.209Z,102145.72
2022-10-17T16:59:35.237Z,102146.91
2022-10-17T17:02:04.006Z,102144.41
2022-10-17T17:04:32.853Z,102146.81
2022-10-17T17:07:04.508Z,102136.84
2022-10-17T17:09:35.775Z,102151.00
2022-10-17T17:12:06.430Z,102165.13
2022-10-17T17:14:35.114Z,102171.25
2022-10-17T17:17:03.802Z,102156.56
2022-10-17T17:19:35.492Z,102149.59
2022-10-17T17:22:04.710Z,102142.25
2022-10-17T17:24:33.373Z,102158.69
2022-10-17T17:27:02.072Z,102161.97
2022-10-17T17:29:32.182Z,102163.19
2022-10-17T17:32:00.941Z,102159.56
2022-10-17T17:34:32.533Z,102166.25
2022-10-17T17:37:01.382Z,102171.06
2022-10-17T17:39:30.804Z,102165.78
2022-10-17T17:42:00.268Z,102165.50
2022-10-17T17:44:29.463Z,102175.69
2022-10-17T17:46:59.711Z,102167.25
2022-10-17T17:49:28.912Z,102188.06
2022-10-17T17:51:57.591Z,102199.31
2022-10-17T17:54:26.640Z,102180.25
2022-10-17T17:56:55.462Z,102182.50
2022-10-17T17:59:24.084Z,102176.06
2022-10-17T18:01:52.861Z,102181.94
2022-10-17T18:04:23.435Z,102185.28
2022-10-17T18:06:52.265Z,102198.06
2022-10-17T18:09:24.002Z,102188.00
2022-10-17T18:11:55.512Z,102200.78
2022-10-17T18:14:25.554Z,102218.34
2022-10-17T18:16:57.847Z,102215.88
2022-10-17T18:19:28.428Z,102215.88
2022-10-17T18:21:57.268Z,102220.41
2022-10-17T18:24:25.989Z,102231.00
2022-10-17T18:26:59.647Z,102228.84
2022-10-17T18:29:31.205Z,102230.06
2022-10-17T18:32:01.343Z,102209.13
2022-10-17T18:34:31.449Z,102221.00
2022-10-17T18:37:02.590Z,102207.59
2022-10-17T18:39:31.524Z,102224.25
2022-10-17T18:42:00.884Z,102230.97
2022-10-17T18:44:30.219Z,102230.22
2022-10-17T18:47:03.015Z,102231.56
2022-10-17T18:49:35.662Z,102222.91
2022-10-17T18:52:04.318Z,102046.13
2022-10-17T18:54:33.621Z,102229.00
2022-10-17T18:57:03.146Z,102240.34
2022-10-17T18:59:31.966Z,102244.06
2022-10-17T19:02:00.806Z,102245.72
2022-10-17T19:04:31.811Z,102242.47
2022-10-17T19:07:02.925Z,102244.06
2022-10-17T19:09:31.561Z,102244.25
2022-10-17T19:12:00.650Z,102249.41
2022-10-17T19:14:30.941Z,102250.41
2022-10-17T19:17:00.674Z,102259.22
2022-10-17T19:19:29.640Z,102254.78
2022-10-17T19:22:05.777Z,102259.34
2022-10-17T19:24:34.858Z,102265.53
2022-10-17T19:27:07.025Z,102263.88
2022-10-17T19:29:36.169Z,102253.38
2022-10-17T19:32:12.076Z,102266.56
2022-10-17T19:34:47.299Z,102263.22
2022-10-17T19:37:17.487Z,102253.66
2022-10-17T19:39:46.161Z,102254.69
2022-10-17T19:42:17.106Z,102258.25
2022-10-17T19:44:45.705Z,102243.50
2022-10-17T19:47:16.934Z,102269.66
2022-10-17T19:49:49.906Z,102269.66
2022-10-17T19:52:20.173Z,102263.44
2022-10-17T19:54:48.847Z,102274.91
2022-10-17T19:57:17.467Z,102271.28
2022-10-17T19:59:46.224Z,102269.94
2022-10-17T20:02:14.992Z,102281.97
2022-10-17T20:04:54.377Z,102285.81
2022-10-17T20:07:30.772Z,102284.63
2022-10-17T20:09:59.720Z,102289.84
2022-10-17T20:12:29.025Z,102300.34
2022-10-17T20:15:00.353Z,102294.47
2022-10-17T20:20:07.853Z,102301.59
2022-10-17T20:22:41.760Z,102286.91
2022-10-17T20:25:12.734Z,102304.22
2022-10-17T20:27:41.987Z,102297.88
2022-10-17T20:30:11.435Z,102307.56
2022-10-17T20:32:40.015Z,102317.56
2022-10-17T20:35:09.659Z,102332.34
2022-10-17T20:37:41.695Z,102336.97
2022-10-17T20:40:43.410Z,102339.88
2022-10-17T20:43:02.302Z,102353.16
2022-10-17T20:45:50.529Z,102357.69
2022-10-17T20:48:20.830Z,102343.25
2022-10-17T20:50:52.292Z,102353.47
2022-10-17T20:53:37.737Z,102368.47
2022-10-17T20:56:12.406Z,102366.81
2022-10-17T20:58:41.149Z,102367.81
2022-10-17T21:01:11.378Z,102352.34
2022-10-17T21:03:43.974Z,102341.78
2022-10-17T21:06:15.968Z,102350.53
2022-10-17T21:08:45.372Z,102364.91
2022-10-17T21:11:18.324Z,102364.91
2022-10-17T21:13:48.396Z,102363.97
2022-10-17T21:16:19.144Z,102335.50
2022-10-17T21:18:49.326Z,102378.00
2022-10-17T21:21:19.509Z,102368.41
2022-10-17T21:23:50.250Z,102370.25
2022-10-17T21:26:20.439Z,102373.78
2022-10-17T21:28:50.218Z,102366.09
2022-10-17T21:31:20.352Z,102381.22
2022-10-17T21:33:53.820Z,102393.69
2022-10-17T21:36:23.931Z,102394.44
2022-10-17T21:38:55.100Z,102397.19
2022-10-17T21:41:28.931Z,102402.56
2022-10-17T21:44:00.349Z,102297.72
2022-10-17T21:46:29.682Z,102400.56
2022-10-17T21:49:00.272Z,102396.31
2022-10-17T21:51:29.491Z,102383.66
2022-10-17T21:54:00.546Z,102396.19
2022-10-17T21:56:32.547Z,102403.44
2022-10-17T21:59:01.578Z,102400.94
2022-10-17T22:01:36.029Z,102403.56
2022-10-17T22:04:07.442Z,102396.84
2022-10-17T22:06:40.877Z,102400.94
2022-10-17T22:09:13.332Z,102371.06
2022-10-17T22:11:45.159Z,102404.41
2022-10-17T22:14:15.708Z,102387.25
2022-10-17T22:16:46.403Z,102404.09
2022-10-17T22:19:17.602Z,102363.59
2022-10-17T22:21:48.798Z,102387.50
2022-10-17T22:26:51.850Z,102419.56
2022-10-17T22:29:20.937Z,102379.31
2022-10-17T22:31:49.573Z,102408.09
2022-10-17T22:34:20.665Z,102414.41
2022-10-17T22:36:49.765Z,102421.00
2022-10-17T22:39:18.490Z,102411.75
2022-10-17T22:41:47.218Z,102431.06
2022-10-17T22:44:17.267Z,102431.13
2022-10-17T22:46:46.273Z,102413.81
2022-10-17T22:49:19.820Z,102415.69
2022-10-17T22:51:48.397Z,102420.97
2022-10-17T22:54:19.256Z,102414.03
2022-10-17T22:56:47.919Z,102421.84
2022-10-17T22:59:18.109Z,102431.56
2022-10-17T23:01:46.781Z,102425.44
2022-10-17T23:04:22.030Z,102422.00
2022-10-17T23:06:51.205Z,102415.97
2022-10-17T23:09:19.824Z,102416.75
2022-10-17T23:11:48.984Z,102412.50
2022-10-17T23:14:19.205Z,102414.13
2022-10-17T23:16:48.298Z,102415.97
2022-10-17T23:19:17.424Z,102423.78
2022-10-17T23:21:46.070Z,102422.81
2022-10-17T23:24:14.712Z,102425.47
2022-10-17T23:26:45.977Z,102419.25
2022-10-17T23:29:14.617Z,102420.34
2022-10-17T23:31:44.590Z,102433.22
2022-10-17T23:34:16.005Z,102419.59
2022-10-17T23:36:44.728Z,102422.09
2022-10-17T23:39:15.662Z,102423.81
2022-10-17T23:41:44.389Z,102418.59
2022-10-17T23:44:13.391Z,102422.97
2022-10-17T23:46:42.122Z,102414.25
2022-10-17T23:49:14.590Z,102417.09
2022-10-17T23:51:43.303Z,102421.22
2022-10-17T23:54:14.650Z,102436.31
2022-10-17T23:56:45.703Z,102419.88
2022-10-17T23:59:14.491Z,102413.91
